Time;durP1;ratioP1;P1;durP2;ratioP2;P2;SDS_P1;SDS_P2;PMS_P1;PMS_P2;Temp;Humidity;BMP_temperature;BMP_pressure;BME280_temperature;BME280_humidity;BME280_pressure;Samples;Min_cycle;Max_cycle;Signal;HPM_P1;HPM_P2
2022/06/21 00:02:23;;;;;;;9.77;2.65;;;;;;;14.09;60.53;100983.97;5112253;28;20020;-50
2022/06/21 00:04:49;;;;;;;8.93;3.00;;;;;;;14.07;60.32;100979.81;5113507;28;20046;-49
2022/06/21 00:07:21;;;;;;;9.02;2.88;;;;;;;13.93;61.24;100985.19;5114195;28;20032;-50
2022/06/21 00:09:47;;;;;;;11.60;2.67;;;;;;;13.94;60.85;100996.81;5113777;28;20479;-53
2022/06/21 00:12:13;;;;;;;8.02;2.80;;;;;;;13.91;61.14;101008.84;5113842;28;20039;-52
2022/06/21 00:14:40;;;;;;;9.98;2.80;;;;;;;13.93;61.20;100995.97;5113302;28;20032;-53
2022/06/21 00:17:06;;;;;;;11.77;3.15;;;;;;;13.90;61.20;100995.56;5112169;28;20499;-49
2022/06/21 00:19:32;;;;;;;11.98;3.10;;;;;;;13.77;62.25;100996.34;5113483;28;20067;-49
2022/06/21 00:21:58;;;;;;;7.25;3.00;;;;;;;13.79;61.65;100994.25;5113894;28;20026;-49
2022/06/21 00:24:23;;;;;;;15.20;3.17;;;;;;;13.62;62.32;100979.47;5113507;28;20467;-51
2022/06/21 00:26:49;;;;;;;9.05;2.72;;;;;;;13.59;62.94;100993.34;5113561;28;20088;-51
2022/06/21 00:29:15;;;;;;;7.97;2.80;;;;;;;13.46;62.90;100972.53;5113601;28;20120;-51
2022/06/21 00:31:46;;;;;;;12.30;3.40;;;;;;;13.44;63.55;100983.50;5115037;28;20053;-50
2022/06/21 00:34:15;;;;;;;11.88;3.83;;;;;;;13.35;63.73;100985.56;5117185;28;20057;-49
2022/06/21 00:36:41;;;;;;;10.85;3.30;;;;;;;13.25;64.53;100985.03;5117521;28;20146;-50
2022/06/21 00:39:11;;;;;;;13.80;3.70;;;;;;;13.26;64.34;100981.31;5117554;28;20114;-49
2022/06/21 00:41:49;;;;;;;11.82;3.25;;;;;;;13.16;64.14;100965.47;5117125;27;20371;-49
2022/06/21 00:44:20;;;;;;;14.10;3.45;;;;;;;13.18;64.71;100994.94;5117787;28;20371;-49
2022/06/21 00:46:49;;;;;;;10.32;3.35;;;;;;;13.29;63.55;100990.88;5115884;28;20032;-49
2022/06/21 00:49:27;;;;;;;10.77;2.97;;;;;;;13.08;64.37;100968.34;5117024;28;20447;-50
2022/06/21 00:52:01;;;;;;;13.93;3.53;;;;;;;13.24;63.94;100993.31;5117213;28;20032;-49
2022/06/21 00:54:52;;;;;;;12.95;3.40;;;;;;;13.18;63.95;100979.59;5115852;28;20445;-48
2022/06/21 00:57:24;;;;;;;18.15;3.58;;;;;;;13.28;63.27;100995.44;5116021;28;20043;-53
2022/06/21 00:59:50;;;;;;;10.43;2.92;;;;;;;13.21;63.56;100993.75;5116873;28;20106;-49
2022/06/21 01:02:23;;;;;;;14.68;3.60;;;;;;;13.14;64.28;100999.09;5115398;28;20364;-48
2022/06/21 01:04:55;;;;;;;11.38;3.03;;;;;;;13.05;64.53;100984.09;5116848;28;20168;-48
2022/06/21 01:07:20;;;;;;;15.52;3.55;;;;;;;12.94;64.96;100991.66;5116692;28;20032;-49
2022/06/21 01:09:54;;;;;;;13.15;3.42;;;;;;;12.78;65.45;100955.09;5116351;28;20054;-51
2022/06/21 01:12:29;;;;;;;15.15;3.70;;;;;;;12.84;65.36;100961.56;5115569;28;20118;-53
2022/06/21 01:15:17;;;;;;;8.75;2.85;;;;;;;12.74;66.74;100972.69;5117394;28;20032;-49
2022/06/21 01:17:44;;;;;;;16.45;3.67;;;;;;;12.59;66.83;100967.38;5116636;28;20519;-49
2022/06/21 01:20:16;;;;;;;13.10;3.72;;;;;;;12.55;66.74;100967.94;5116739;27;20028;-49
2022/06/21 01:23:09;;;;;;;9.52;3.28;;;;;;;12.51;67.77;100962.09;5116710;28;20028;-50
2022/06/21 01:26:11;;;;;;;9.65;4.00;;;;;;;12.51;67.81;100958.59;5115500;28;20055;-48
2022/06/21 01:28:38;;;;;;;15.23;3.63;;;;;;;12.48;67.06;100945.50;5115370;28;20471;-50
2022/06/21 01:31:05;;;;;;;14.40;3.55;;;;;;;12.36;67.76;100937.94;5116399;28;20042;-48
2022/06/21 01:33:35;;;;;;;14.27;4.03;;;;;;;12.27;67.96;100920.25;5116221;28;20581;-49
2022/06/21 01:36:04;;;;;;;10.32;3.50;;;;;;;12.26;67.12;100910.53;5098221;28;20024;-52
2022/06/21 01:38:38;;;;;;;10.00;3.40;;;;;;;12.42;66.85;100912.09;5116165;27;20076;-49
2022/06/21 01:41:09;;;;;;;9.85;3.25;;;;;;;12.49;65.70;100907.59;5114810;28;20031;-48
2022/06/21 01:43:40;;;;;;;7.30;3.03;;;;;;;12.38;65.77;100894.66;5115888;28;20020;-48
2022/06/21 01:46:10;;;;;;;10.18;3.38;;;;;;;12.44;65.95;100901.94;5098423;28;20070;-49
2022/06/21 01:48:48;;;;;;;11.73;3.28;;;;;;;12.45;66.30;100892.03;5116043;28;20035;-51
2022/06/21 01:51:25;;;;;;;8.02;2.88;;;;;;;12.38;66.08;100890.09;5116147;28;20032;-51
2022/06/21 01:53:52;;;;;;;8.27;3.10;;;;;;;12.37;66.09;100896.53;5115901;28;20040;-49
2022/06/21 01:56:25;;;;;;;8.73;3.25;;;;;;;12.36;66.31;100902.94;5114898;28;20031;-52
2022/06/21 01:58:58;;;;;;;11.20;3.92;;;;;;;12.41;66.16;100891.59;5114643;28;20024;-51
2022/06/21 02:01:31;;;;;;;7.35;3.33;;;;;;;12.34;65.81;100877.22;5115128;28;20100;-51
2022/06/21 02:04:01;;;;;;;3.90;2.50;;;;;;;12.29;66.49;100888.56;5115856;28;20535;-49
2022/06/21 02:06:31;;;;;;;7.55;3.08;;;;;;;12.28;66.07;100888.78;5098247;28;20409;-49
2022/06/21 02:09:02;;;;;;;13.65;4.80;;;;;;;12.10;67.16;100862.31;5116037;28;20052;-50
2022/06/21 02:11:35;;;;;;;15.93;4.03;;;;;;;12.11;67.11;100874.75;5116267;28;20023;-48
2022/06/21 02:16:53;;;;;;;15.13;4.57;;;;;;;11.97;67.57;100863.88;5101604;28;20031;-50
2022/06/21 02:19:27;;;;;;;9.85;3.97;;;;;;;12.01;67.63;100862.44;5116605;28;20420;-50
2022/06/21 02:21:53;;;;;;;;;;;;;;;12.09;68.49;100866.03;5117871;28;20038;-49
2022/06/21 02:24:23;;;;;;;12.75;4.35;;;;;;;11.92;67.60;100849.31;5117438;28;20336;-50
2022/06/21 02:26:51;;;;;;;11.60;3.70;;;;;;;12.00;67.19;100863.50;5115857;28;20067;-49
2022/06/21 02:29:17;;;;;;;16.92;5.00;;;;;;;12.00;67.00;100868.03;5117259;28;20078;-49
2022/06/21 02:31:44;;;;;;;17.55;5.28;;;;;;;12.00;67.82;100870.72;5118558;28;20332;-53
2022/06/21 02:34:20;;;;;;;16.02;5.35;;;;;;;12.00;67.50;100862.66;5116025;28;20023;-53
2022/06/21 02:36:49;;;;;;;10.68;4.28;;;;;;;11.79;68.47;100840.09;5115188;28;20372;-52
2022/06/21 02:39:19;;;;;;;10.32;4.07;;;;;;;11.96;67.77;100864.03;5115470;28;20035;-50
2022/06/21 02:41:50;;;;;;;15.75;4.95;;;;;;;11.90;67.98;100844.13;5115969;28;20031;-49
2022/06/21 02:44:21;;;;;;;6.95;3.42;;;;;;;11.93;67.40;100849.13;5114230;28;20140;-51
2022/06/21 02:46:51;;;;;;;5.38;3.00;;;;;;;11.93;67.44;100842.91;5097599;28;20073;-51
2022/06/21 02:49:24;;;;;;;17.15;3.80;;;;;;;11.86;67.17;100850.88;5116427;28;20140;-48
2022/06/21 02:51:56;;;;;;;7.15;3.25;;;;;;;11.86;68.20;100860.81;5114441;28;20023;-49
2022/06/21 02:54:31;;;;;;;10.23;3.78;;;;;;;11.80;68.11;100855.19;5114091;28;20055;-49
2022/06/21 02:57:14;;;;;;;8.27;3.17;;;;;;;11.81;67.84;100864.09;5115403;28;20031;-50
2022/06/21 02:59:43;;;;;;;7.57;2.88;;;;;;;11.79;67.94;100864.31;5117496;28;20035;-48
2022/06/21 03:02:14;;;;;;;9.75;4.20;;;;;;;11.79;67.93;100869.69;5118240;27;20061;-48
2022/06/21 03:04:47;;;;;;;6.53;3.50;;;;;;;11.71;68.88;100864.41;5117020;28;20051;-50
2022/06/21 03:07:20;;;;;;;10.27;3.47;;;;;;;11.69;68.51;100860.25;5100483;28;20027;-50
2022/06/21 03:09:46;;;;;;;12.02;4.00;;;;;;;11.66;68.50;100850.69;5083302;28;20503;-47
2022/06/21 03:12:18;;;;;;;6.18;3.35;;;;;;;11.53;68.90;100843.31;5114840;28;20031;-47
2022/06/21 03:14:48;;;;;;;14.57;3.58;;;;;;;11.50;69.29;100841.03;5115438;28;20024;-48
2022/06/21 03:17:18;;;;;;;5.82;3.08;;;;;;;11.58;68.75;100853.50;5114913;28;20456;-50
2022/06/21 03:19:49;;;;;;;11.40;3.38;;;;;;;11.62;68.42;100846.72;5114936;28;20020;-49
2022/06/21 03:22:18;;;;;;;9.50;3.20;;;;;;;11.53;68.62;100851.38;5096545;28;20027;-49
2022/06/21 03:24:46;;;;;;;7.55;3.22;;;;;;;11.51;68.46;100844.53;5113366;28;20030;-48
2022/06/21 03:27:26;;;;;;;7.32;3.20;;;;;;;11.54;68.74;100866.50;5113358;28;20341;-48
2022/06/21 03:29:53;;;;;;;13.32;4.18;;;;;;;11.48;68.49;100852.97;5114544;28;20122;-48
2022/06/21 03:32:19;;;;;;;10.93;3.55;;;;;;;11.55;68.27;100859.25;5114454;28;20126;-49
2022/06/21 03:34:47;;;;;;;9.70;3.28;;;;;;;11.53;68.49;100867.50;5096472;28;20020;-48
2022/06/21 03:37:12;;;;;;;10.98;3.85;;;;;;;11.39;69.37;100850.41;5114944;28;20059;-49
2022/06/21 03:42:32;;;;;;;6.60;3.10;;;;;;;11.44;68.58;100855.25;5113446;28;20023;-49
2022/06/21 03:45:03;;;;;;;9.13;3.20;;;;;;;11.31;69.42;100842.47;5114062;28;20030;-49
2022/06/21 03:47:37;;;;;;;7.97;3.13;;;;;;;11.39;69.10;100852.28;5113475;28;20027;-47
2022/06/21 03:50:13;;;;;;;10.68;3.63;;;;;;;11.16;69.00;100817.44;5113331;28;20035;-49
2022/06/21 03:52:47;;;;;;;8.65;3.10;;;;;;;11.29;69.33;100833.75;5116682;28;20032;-49
2022/06/21 03:55:36;;;;;;;5.72;2.47;;;;;;;11.33;69.64;100848.50;5116294;28;20031;-49
2022/06/21 03:58:15;;;;;;;9.25;2.88;;;;;;;11.29;69.68;100843.66;5114333;28;20111;-48
2022/06/21 04:00:53;;;;;;;4.80;2.83;;;;;;;11.24;69.90;100849.63;5113693;28;20472;-48
2022/06/21 04:03:42;;;;;;;9.50;3.22;;;;;;;11.23;69.59;100838.00;5113884;28;20020;-49
2022/06/21 04:06:33;;;;;;;6.65;3.15;;;;;;;11.21;69.92;100833.84;5117537;28;20036;-48
2022/06/21 04:09:05;;;;;;;11.10;3.20;;;;;;;11.29;70.21;100835.59;5136624;27;20523;-48
2022/06/21 04:11:58;;;;;;;9.13;3.45;;;;;;;11.22;71.32;100846.28;5120083;28;20035;-49
2022/06/21 04:14:31;;;;;;;5.95;3.00;;;;;;;11.04;69.74;100811.75;5119405;28;20490;-48
2022/06/21 04:17:21;;;;;;;7.65;2.58;;;;;;;11.27;70.13;100845.72;5120698;27;20038;-49
2022/06/21 04:19:54;;;;;;;9.77;3.03;;;;;;;11.28;69.90;100856.28;5119667;28;20027;-48
2022/06/21 04:22:32;;;;;;;9.98;3.78;;;;;;;11.22;69.91;100830.16;5120567;27;20119;-49
2022/06/21 04:25:07;;;;;;;5.93;3.53;;;;;;;11.37;70.31;100863.22;5120685;27;20028;-49
2022/06/21 04:27:42;;;;;;;6.93;3.30;;;;;;;11.40;70.06;100849.41;5121093;27;20110;-52
2022/06/21 04:30:11;;;;;;;;;;;;;;;11.41;71.23;100856.44;5120893;27;20080;-52
2022/06/21 04:32:43;;;;;;;9.75;3.47;;;;;;;11.44;70.82;100868.69;5120232;28;20290;-48
2022/06/21 04:35:33;;;;;;;12.00;3.97;;;;;;;11.46;71.32;100853.19;5119176;28;20035;-48
2022/06/21 04:38:06;;;;;;;7.72;3.30;;;;;;;11.49;70.14;100857.34;5105590;28;20046;-49
2022/06/21 04:40:39;;;;;;;7.18;3.08;;;;;;;11.54;70.37;100860.31;5120408;27;20028;-48
2022/06/21 04:43:20;;;;;;;6.50;2.97;;;;;;;11.56;70.40;100864.44;5119085;28;20024;-47
2022/06/21 04:45:54;;;;;;;5.68;3.10;;;;;;;11.62;70.62;100874.44;5119142;28;20032;-49
2022/06/21 04:48:44;;;;;;;10.00;3.55;;;;;;;11.63;71.61;100878.81;5119928;28;20475;-48
2022/06/21 04:51:16;;;;;;;13.32;3.88;;;;;;;11.82;70.58;100881.91;5105489;28;20067;-48
2022/06/21 04:54:22;;;;;;;8.10;3.38;;;;;;;11.98;68.83;100853.94;5118737;28;20039;-49
2022/06/21 04:57:13;;;;;;;9.13;2.90;;;;;;;11.92;70.70;100885.16;5093347;28;20443;-49
2022/06/21 04:59:47;;;;;;;10.98;3.90;;;;;;;11.81;71.20;100881.09;5118979;28;20066;-48
2022/06/21 05:02:33;;;;;;;;;;;;;;;11.81;71.90;100878.38;5120725;27;20027;-48
2022/06/21 05:05:15;;;;;;;13.10;4.00;;;;;;;11.80;71.28;100882.09;5118985;28;19934;-48
2022/06/21 05:07:47;;;;;;;10.55;3.70;;;;;;;11.82;71.15;100885.41;5119895;27;20031;-47
2022/06/21 05:10:19;;;;;;;12.70;4.22;;;;;;;11.78;70.34;100877.94;5119635;27;20070;-48
2022/06/21 05:12:48;;;;;;;13.60;4.18;;;;;;;11.74;71.00;100855.97;5118597;28;20028;-49
2022/06/21 05:15:18;;;;;;;11.88;3.83;;;;;;;11.95;70.91;100886.63;5118535;28;20074;-48
2022/06/21 05:17:55;;;;;;;5.35;3.00;;;;;;;11.98;70.22;100892.47;5117598;27;20023;-48
2022/06/21 05:20:27;;;;;;;8.10;3.10;;;;;;;12.00;69.85;100884.19;5115110;28;20050;-48
2022/06/21 05:22:56;;;;;;;15.75;4.50;;;;;;;12.03;70.05;100880.28;5098185;28;20107;-48
2022/06/21 05:25:31;;;;;;;8.50;3.55;;;;;;;12.10;70.66;100892.75;5116476;28;20499;-49
2022/06/21 05:28:04;;;;;;;20.10;4.78;;;;;;;12.11;70.92;100886.38;5116704;28;20063;-48
2022/06/21 05:30:44;;;;;;;17.17;4.45;;;;;;;12.19;70.35;100890.78;5116785;28;20023;-48
2022/06/21 05:33:17;;;;;;;11.10;4.35;;;;;;;12.26;69.90;100893.50;5116225;28;20024;-51
2022/06/21 05:35:44;;;;;;;14.52;4.38;;;;;;;12.26;70.05;100890.81;5116314;28;20111;-48
2022/06/21 05:38:16;;;;;;;15.23;5.07;;;;;;;12.18;70.45;100871.09;5116068;28;20031;-49
2022/06/21 05:40:58;;;;;;;21.58;5.60;;;;;;;12.35;70.19;100890.50;5114928;28;20024;-50
2022/06/21 05:43:42;;;;;;;20.55;4.90;;;;;;;12.43;70.16;100894.09;5114935;28;20030;-49
2022/06/21 05:46:17;;;;;;;11.25;4.43;;;;;;;12.45;70.63;100906.31;5115941;28;20410;-53
2022/06/21 05:48:43;;;;;;;20.00;5.15;;;;;;;12.49;69.96;100896.81;5116250;28;20032;-50
2022/06/21 05:51:16;;;;;;;12.23;4.30;;;;;;;12.43;69.49;100877.94;5116217;28;20032;-49
2022/06/21 05:53:48;;;;;;;15.82;4.93;;;;;;;12.49;69.72;100886.03;5116180;28;20135;-49
2022/06/21 05:56:19;;;;;;;16.60;5.80;;;;;;;12.63;69.07;100892.38;5114911;28;20054;-50
2022/06/21 05:58:49;;;;;;;19.58;5.18;;;;;;;12.73;69.67;100900.09;5114809;28;20054;-49
2022/06/21 06:01:28;;;;;;;17.55;4.75;;;;;;;12.80;69.00;100898.28;5114546;28;20502;-49
2022/06/21 06:04:02;;;;;;;15.93;4.65;;;;;;;12.79;68.66;100888.53;5115954;28;20026;-49
2022/06/21 06:06:34;;;;;;;17.77;4.70;;;;;;;12.90;68.72;100895.22;5116150;28;20088;-49
2022/06/21 06:09:06;;;;;;;17.08;4.65;;;;;;;12.89;69.11;100875.53;5115545;28;20056;-49
2022/06/21 06:12:01;;;;;;;12.40;3.78;;;;;;;12.98;68.56;100887.81;5114432;28;20106;-49
2022/06/21 06:14:37;;;;;;;14.10;4.25;;;;;;;12.93;68.32;100874.09;5115432;28;20031;-49
2022/06/21 06:17:13;;;;;;;13.13;4.47;;;;;;;13.01;68.81;100878.50;5113982;28;20377;-49
2022/06/21 06:19:50;;;;;;;14.30;4.00;;;;;;;13.05;68.25;100884.31;5116018;28;20408;-49
2022/06/21 06:22:34;;;;;;;14.32;4.30;;;;;;;13.14;68.13;100891.22;5115463;28;20047;-49
2022/06/21 06:25:22;;;;;;;9.88;4.15;;;;;;;13.18;67.90;100885.19;5114720;28;20059;-48
2022/06/21 06:28:28;;;;;;;19.17;4.68;;;;;;;13.29;68.16;100897.28;5116293;28;20028;-52
2022/06/21 06:31:04;;;;;;;16.08;3.95;;;;;;;13.27;67.34;100885.88;5103580;28;20035;-48
2022/06/21 06:33:35;;;;;;;14.20;3.80;;;;;;;13.31;67.75;100881.75;5116221;28;20031;-49
2022/06/21 06:36:08;;;;;;;14.43;4.28;;;;;;;13.40;67.84;100887.00;5116393;28;20388;-48
2022/06/21 06:38:35;;;;;;;13.63;4.05;;;;;;;13.41;67.45;100880.56;5115847;28;20023;-49
2022/06/21 06:41:15;;;;;;;11.02;3.78;;;;;;;13.44;67.31;100866.69;5116218;28;20031;-49
2022/06/21 06:43:48;;;;;;;14.95;4.65;;;;;;;13.49;67.23;100865.03;5114816;28;20019;-51
2022/06/21 06:46:26;;;;;;;6.18;3.38;;;;;;;13.58;67.27;100868.38;5116086;28;20049;-48
2022/06/21 06:49:01;;;;;;;14.43;4.00;;;;;;;13.59;66.96;100870.03;5114531;28;20028;-50
2022/06/21 06:51:33;;;;;;;;;;;;;;;13.70;68.22;100885.63;5115339;28;20034;-50
2022/06/21 06:54:00;;;;;;;13.50;4.22;;;;;;;13.71;67.58;100875.69;5115246;28;20014;-48
2022/06/21 06:56:31;;;;;;;12.35;3.90;;;;;;;13.83;66.78;100882.13;5096678;28;20496;-52
2022/06/21 06:59:03;;;;;;;8.15;3.50;;;;;;;13.92;66.43;100877.38;5114729;28;20032;-49
2022/06/21 07:01:44;;;;;;;6.78;3.50;;;;;;;14.02;66.35;100876.97;5113394;28;20035;-49
2022/06/21 07:04:14;;;;;;;9.43;2.55;;;;;;;14.09;65.83;100877.81;5114751;28;20115;-48
2022/06/21 07:06:47;;;;;;;11.85;3.75;;;;;;;14.18;65.62;100867.63;5113090;28;20365;-53
2022/06/21 07:09:29;;;;;;;8.13;3.10;;;;;;;14.18;65.21;100862.25;5113241;28;20472;-53
2022/06/21 07:12:12;;;;;;;13.88;3.08;;;;;;;14.29;64.66;100862.44;5114393;28;20035;-51
2022/06/21 07:14:38;;;;;;;10.68;3.50;;;;;;;14.38;64.20;100870.34;5112825;28;20122;-51
2022/06/21 07:17:32;;;;;;;6.63;2.70;;;;;;;14.43;64.07;100865.97;5113506;28;20123;-53
2022/06/21 07:19:59;;;;;;;12.77;3.17;;;;;;;14.39;63.82;100848.50;5099033;28;20047;-49
2022/06/21 07:22:28;;;;;;;10.88;4.18;;;;;;;14.56;63.65;100842.66;5114277;28;20030;-52
2022/06/21 07:25:22;;;;;;;7.10;2.80;;;;;;;14.75;63.82;100863.47;5095944;28;20032;-50
2022/06/21 07:27:53;;;;;;;11.68;3.22;;;;;;;14.82;63.08;100858.88;5113411;28;20038;-49
2022/06/21 07:30:22;;;;;;;14.73;3.28;;;;;;;14.92;62.65;100849.47;5114215;28;20065;-49
2022/06/21 07:32:54;;;;;;;5.82;2.55;;;;;;;14.92;62.66;100831.38;5113997;28;20063;-48
2022/06/21 07:35:32;;;;;;;10.30;3.00;;;;;;;15.15;62.16;100852.50;5113340;28;20019;-52
2022/06/21 07:38:23;;;;;;;7.53;2.85;;;;;;;15.17;62.22;100834.16;5114373;28;20032;-49
2022/06/21 07:40:53;;;;;;;16.45;2.50;;;;;;;15.33;61.64;100853.69;5114463;28;20051;-50
2022/06/21 07:43:27;;;;;;;12.40;3.10;;;;;;;15.43;61.80;100854.03;5113800;28;20031;-49
2022/06/21 07:45:56;;;;;;;11.63;2.90;;;;;;;15.49;60.50;100845.06;5113691;28;20028;-49
2022/06/21 07:48:28;;;;;;;9.23;3.13;;;;;;;15.52;60.23;100844.63;5114213;28;20260;-50
2022/06/21 07:51:04;;;;;;;14.30;2.88;;;;;;;15.70;59.98;100853.91;5095705;28;20031;-49
2022/06/21 07:53:36;;;;;;;14.70;3.10;;;;;;;15.82;60.02;100850.31;5113755;28;20466;-50
2022/06/21 07:56:10;;;;;;;10.50;2.60;;;;;;;15.93;59.49;100837.91;5114233;28;20386;-49
2022/06/21 07:58:43;;;;;;;9.20;2.55;;;;;;;16.03;58.42;100838.28;5112291;28;20020;-49
2022/06/21 08:07:05;;;;;;;5.65;2.60;;;;;;;16.41;56.97;100834.59;5112929;28;20530;-50
2022/06/21 08:09:55;;;;;;;6.85;2.10;;;;;;;16.51;56.27;100811.56;5113558;28;20115;-48
2022/06/21 08:12:21;;;;;;;8.38;2.78;;;;;;;16.60;55.85;100793.94;5113821;28;20032;-49
2022/06/21 08:14:47;;;;;;;9.27;2.60;;;;;;;16.94;55.78;100810.72;5113770;28;20039;-48
2022/06/21 08:17:21;;;;;;;9.75;2.30;;;;;;;17.28;54.46;100805.69;5114319;28;20028;-53
2022/06/21 08:20:15;;;;;;;9.18;2.97;;;;;;;17.93;51.48;100803.06;5113613;28;20106;-50
2022/06/21 08:22:50;;;;;;;5.10;2.22;;;;;;;18.77;50.67;100789.19;5113812;28;20495;-49
2022/06/21 08:25:48;;;;;;;3.95;2.17;;;;;;;19.45;48.59;100796.81;5113452;28;20111;-48
2022/06/21 08:28:37;;;;;;;10.93;2.58;;;;;;;19.83;46.33;100789.84;5113203;28;20032;-50
2022/06/21 08:31:11;;;;;;;5.05;2.05;;;;;;;20.54;45.93;100783.81;5112763;28;20056;-51
2022/06/21 08:33:44;;;;;;;7.20;1.93;;;;;;;21.14;44.57;100769.31;5112375;28;20062;-49
2022/06/21 08:36:32;;;;;;;5.50;2.30;;;;;;;21.97;44.69;100774.47;5112587;28;20259;-53
2022/06/21 08:39:04;;;;;;;6.60;2.10;;;;;;;22.49;44.02;100767.44;5113619;28;20046;-51
2022/06/21 08:41:55;;;;;;;3.80;1.70;;;;;;;22.78;41.29;100762.34;5114469;28;20119;-51
2022/06/21 08:48:18;;;;;;;5.95;3.08;;;;;;;22.29;41.83;100742.66;5094043;28;20023;-54
2022/06/21 08:51:12;;;;;;;7.45;2.63;;;;;;;22.93;39.17;100758.03;5114519;28;20122;-50
2022/06/21 08:54:18;;;;;;;7.43;2.78;;;;;;;23.21;40.37;100739.50;5115368;28;20043;-51
2022/06/21 08:56:55;;;;;;;15.52;2.67;;;;;;;23.77;36.61;100734.03;5105212;28;20081;-50
2022/06/21 08:59:49;;;;;;;3.88;2.03;;;;;;;24.17;37.85;100729.63;5117492;28;20118;-50
2022/06/21 09:02:29;;;;;;;4.93;2.03;;;;;;;25.01;37.32;100738.06;5117296;28;20024;-53
2022/06/21 09:05:27;;;;;;;6.63;1.92;;;;;;;25.49;34.96;100732.81;5117947;28;20050;-50
2022/06/21 09:08:09;;;;;;;5.07;1.92;;;;;;;26.17;35.27;100733.03;5116913;28;20098;-54
2022/06/21 09:10:59;;;;;;;3.03;2.25;;;;;;;26.86;35.45;100733.63;5117873;28;20040;-49
2022/06/21 09:13:45;;;;;;;6.40;2.10;;;;;;;27.28;31.39;100723.66;5116243;28;20101;-52
2022/06/21 09:16:22;;;;;;;4.55;2.22;;;;;;;26.82;31.46;100725.13;5115895;28;20033;-50
2022/06/21 09:19:16;;;;;;;5.10;2.08;;;;;;;27.51;34.29;100730.19;5116036;28;20125;-49
2022/06/21 09:21:57;;;;;;;2.45;1.90;;;;;;;28.19;32.98;100716.84;5115639;28;20049;-51
2022/06/21 09:24:41;;;;;;;4.00;1.75;;;;;;;28.82;29.65;100711.72;5116790;28;20031;-48
2022/06/21 09:27:19;;;;;;;7.65;1.90;;;;;;;28.99;29.25;100711.84;5115390;28;20028;-49
2022/06/21 09:30:03;;;;;;;6.68;2.00;;;;;;;29.17;30.22;100701.78;5116839;28;20055;-51
2022/06/21 09:32:57;;;;;;;4.22;1.55;;;;;;;29.65;29.81;100700.34;5098674;28;20031;-50
2022/06/21 09:35:50;;;;;;;5.93;2.08;;;;;;;30.16;28.69;100701.72;5102367;28;20040;-51
2022/06/21 09:38:56;;;;;;;4.95;2.05;;;;;;;30.44;27.42;100704.28;5116098;28;20028;-47
2022/06/21 09:41:54;;;;;;;5.38;2.05;;;;;;;29.91;27.33;100703.28;5104463;28;20035;-49
2022/06/21 09:44:34;;;;;;;6.30;2.50;;;;;;;29.63;25.90;100686.81;5115328;28;20100;-49
2022/06/21 09:47:28;;;;;;;5.75;1.92;;;;;;;29.65;26.23;100694.81;5115177;28;20080;-50
2022/06/21 09:49:59;;;;;;;;;;;;;;;29.84;24.91;100694.59;5115738;28;20032;-48
2022/06/21 09:52:43;;;;;;;3.95;1.90;;;;;;;30.52;26.37;100684.13;5116234;28;19907;-49
2022/06/21 09:55:17;;;;;;;;;;;;;;;30.75;24.44;100682.00;5116521;28;20024;-50
2022/06/21 09:58:18;;;;;;;8.43;2.50;;;;;;;30.68;24.09;100693.59;5116314;28;19907;-51
2022/06/21 10:00:53;;;;;;;6.18;1.42;;;;;;;31.09;28.05;100685.16;5102916;28;20111;-49
2022/06/21 10:03:46;;;;;;;4.18;1.92;;;;;;;31.48;27.00;100683.34;5115772;28;20039;-50
2022/06/21 10:06:23;;;;;;;5.82;2.17;;;;;;;31.22;23.32;100689.72;5115641;28;20031;-49
2022/06/21 10:09:06;;;;;;;8.32;2.22;;;;;;;30.40;25.91;100670.06;5115546;28;20130;-49
2022/06/21 10:11:53;;;;;;;4.55;2.13;;;;;;;29.93;24.31;100689.91;5117087;28;20027;-51
2022/06/21 10:14:44;;;;;;;9.07;2.13;;;;;;;29.82;22.69;100703.22;5116964;28;20038;-52
2022/06/21 10:17:38;;;;;;;5.13;1.77;;;;;;;30.73;21.32;100692.63;5117024;28;20112;-50
2022/06/21 10:20:32;;;;;;;3.28;1.70;;;;;;;31.02;21.32;100697.56;5114523;28;20035;-52
2022/06/21 10:23:37;;;;;;;4.32;1.80;;;;;;;31.03;21.13;100692.81;5114359;28;20483;-54
2022/06/21 10:26:35;;;;;;;4.32;1.80;;;;;;;30.96;21.46;100687.78;5103379;28;20387;-50
2022/06/21 10:29:33;;;;;;;4.40;1.83;;;;;;;31.43;20.66;100687.91;5115674;28;20142;-48
2022/06/21 10:32:25;;;;;;;3.08;1.58;;;;;;;31.94;22.96;100692.84;5101725;28;20173;-52
2022/06/21 10:35:10;;;;;;;4.45;1.75;;;;;;;32.85;21.42;100689.75;5115260;28;20379;-53
2022/06/21 10:38:04;;;;;;;3.55;1.67;;;;;;;32.44;19.60;100697.69;5114370;28;20060;-53
2022/06/21 10:40:54;;;;;;;6.65;2.00;;;;;;;32.89;20.17;100685.94;5114534;28;20042;-50
2022/06/21 10:43:44;;;;;;;6.63;2.22;;;;;;;32.95;21.79;100692.13;5114063;28;20020;-50
2022/06/21 10:46:17;;;;;;;5.55;2.08;;;;;;;32.72;21.98;100692.44;5113910;28;20046;-48
2022/06/21 10:49:07;;;;;;;4.28;1.80;;;;;;;33.18;19.46;100673.13;5115289;28;20108;-49
2022/06/21 10:51:58;;;;;;;4.38;1.90;;;;;;;32.47;18.99;100688.69;5115136;28;20129;-51
2022/06/21 10:55:04;;;;;;;10.05;2.50;;;;;;;31.53;20.47;100678.41;5114851;28;20449;-53
2022/06/21 10:57:47;;;;;;;5.57;1.77;;;;;;;31.72;19.46;100685.56;5088172;28;20031;-50
2022/06/21 11:04:03;;;;;;;9.15;2.20;;;;;;;31.62;20.64;100686.75;5103364;28;20099;-48
2022/06/21 11:06:54;;;;;;;4.32;1.70;;;;;;;31.84;20.34;100678.16;5102532;28;20027;-48
2022/06/21 11:09:31;;;;;;;5.18;2.00;;;;;;;33.10;20.99;100662.88;5113406;28;20388;-53
2022/06/21 11:15:36;;;;;;;2.70;1.33;;;;;;;34.29;19.96;100676.94;5113114;28;20035;-50
2022/06/21 11:18:27;;;;;;;4.80;1.67;;;;;;;34.25;20.28;100666.81;5102123;28;20123;-47
2022/06/21 11:21:26;;;;;;;3.58;1.75;;;;;;;34.72;17.54;100662.72;5095980;28;20035;-50
2022/06/21 11:24:26;;;;;;;4.78;1.45;;;;;;;33.87;18.56;100659.63;5113211;28;20031;-53
2022/06/21 11:27:15;;;;;;;2.88;1.45;;;;;;;34.17;17.07;100662.19;5113816;28;20034;-53
2022/06/21 11:29:52;;;;;;;4.80;1.70;;;;;;;33.58;18.46;100660.56;5113148;28;20028;-50
2022/06/21 11:32:51;;;;;;;2.17;1.40;;;;;;;34.40;17.61;100656.94;5114029;28;20039;-50
2022/06/21 11:35:56;;;;;;;3.90;1.70;;;;;;;35.14;17.03;100651.97;5113233;28;20168;-52
2022/06/21 11:38:37;;;;;;;3.60;1.40;;;;;;;35.09;15.86;100655.84;5101417;28;20027;-53
2022/06/21 11:44:51;;;;;;;2.45;1.23;;;;;;;36.30;16.91;100662.16;5093070;28;20095;-52
2022/06/21 11:47:57;;;;;;;4.22;1.58;;;;;;;36.26;15.93;100654.84;5113554;28;20035;-51
2022/06/21 11:50:27;;;;;;;6.97;1.88;;;;;;;36.42;17.39;100647.25;5101300;28;20027;-50
2022/06/21 11:53:21;;;;;;;3.83;1.80;;;;;;;35.90;15.69;100656.78;5114002;28;20024;-51
2022/06/21 11:55:56;;;;;;;2.72;1.65;;;;;;;34.67;18.22;100647.81;5113060;28;20046;-50
2022/06/21 11:58:46;;;;;;;4.38;1.30;;;;;;;34.93;16.12;100648.56;5096244;28;20510;-50
2022/06/21 12:01:36;;;;;;;8.15;1.77;;;;;;;34.61;16.89;100643.66;5113133;28;20027;-52
2022/06/21 12:04:23;;;;;;;4.00;1.50;;;;;;;34.80;16.81;100640.25;5112555;28;20030;-50
2022/06/21 12:07:06;;;;;;;6.53;2.10;;;;;;;35.36;16.00;100635.81;5113903;28;20032;-51
2022/06/21 12:09:43;;;;;;;4.00;1.50;;;;;;;35.63;16.21;100636.94;5113527;28;20056;-53
2022/06/21 12:12:28;;;;;;;2.88;1.80;;;;;;;35.06;16.50;100625.03;5112416;28;20088;-54
2022/06/21 12:15:33;;;;;;;4.47;1.88;;;;;;;35.27;16.29;100639.59;5113966;28;20421;-55
2022/06/21 12:18:16;;;;;;;3.03;1.42;;;;;;;35.76;16.55;100640.47;5087394;28;20227;-52
2022/06/21 12:21:04;;;;;;;2.27;1.50;;;;;;;35.40;16.70;100636.72;5112796;28;20102;-53
2022/06/21 12:23:45;;;;;;;5.43;1.60;;;;;;;35.87;16.99;100619.19;5112714;28;20059;-52
2022/06/21 12:26:15;;;;;;;2.75;1.40;;;;;;;35.71;16.67;100637.94;5114058;28;20031;-52
2022/06/21 12:28:41;;;;;;;2.10;1.30;;;;;;;35.92;17.22;100635.69;5117630;28;20046;-52
2022/06/21 12:31:31;;;;;;;3.55;1.60;;;;;;;36.51;17.25;100621.84;5116469;28;20031;-50
2022/06/21 12:34:36;;;;;;;3.20;1.45;;;;;;;35.25;15.09;100622.41;5116282;28;20490;-49
2022/06/21 12:37:10;;;;;;;6.22;1.83;;;;;;;34.79;17.26;100610.72;5105220;28;20495;-52
2022/06/21 12:39:39;;;;;;;;;;;;;;;34.58;17.66;100615.66;5117920;28;20388;-52
2022/06/21 12:42:34;;;;;;;6.30;1.88;;;;;;;34.11;16.55;100617.78;5117394;28;19969;-48